sensor_id;sensor_type;location;lat;lon;timestamp;temperature;humidity
9849;DHT22;4963;51.444;6.528;2022-11-15T00:00:28;8.80;99.90
9849;DHT22;4963;51.444;6.528;2022-11-15T00:02:55;8.80;99.90
9849;DHT22;4963;51.444;6.528;2022-11-15T00:05:22;8.80;99.90
9849;DHT22;4963;51.444;6.528;2022-11-15T00:07:48;8.80;99.90
9849;DHT22;4963;51.444;6.528;2022-11-15T00:10:17;8.90;99.90
9849;DHT22;4963;51.444;6.528;2022-11-15T00:12:44;8.90;99.90
9849;DHT22;4963;51.444;6.528;2022-11-15T00:15:10;8.90;99.90
9849;DHT22;4963;51.444;6.528;2022-11-15T00:17:37;9.00;99.90
9849;DHT22;4963;51.444;6.528;2022-11-15T00:20:05;9.00;99.90
9849;DHT22;4963;51.444;6.528;2022-11-15T00:22:32;9.00;99.90
9849;DHT22;4963;51.444;6.528;2022-11-15T00:24:59;9.00;99.90
9849;DHT22;4963;51.444;6.528;2022-11-15T00:27:27;9.00;99.90
9849;DHT22;4963;51.444;6.528;2022-11-15T00:29:54;9.10;99.90
9849;DHT22;4963;51.444;6.528;2022-11-15T00:32:20;9.10;99.90
9849;DHT22;4963;51.444;6.528;2022-11-15T00:34:47;9.20;99.90
9849;DHT22;4963;51.444;6.528;2022-11-15T00:37:14;9.20;99.90
9849;DHT22;4963;51.444;6.528;2022-11-15T00:39:41;9.20;99.90
9849;DHT22;4963;51.444;6.528;2022-11-15T00:42:08;9.20;99.90
9849;DHT22;4963;51.444;6.528;2022-11-15T00:44:36;9.20;99.90
9849;DHT22;4963;51.444;6.528;2022-11-15T00:47:03;9.20;99.90
9849;DHT22;4963;51.444;6.528;2022-11-15T00:49:29;9.30;99.90
9849;DHT22;4963;51.444;6.528;2022-11-15T00:51:56;9.30;99.90
9849;DHT22;4963;51.444;6.528;2022-11-15T00:54:23;9.30;99.90
9849;DHT22;4963;51.444;6.528;2022-11-15T00:56:50;9.30;99.90
9849;DHT22;4963;51.444;6.528;2022-11-15T00:59:16;9.30;99.90
9849;DHT22;4963;51.444;6.528;2022-11-15T01:01:44;9.40;99.90
9849;DHT22;4963;51.444;6.528;2022-11-15T01:04:11;9.30;99.90
9849;DHT22;4963;51.444;6.528;2022-11-15T01:06:38;9.40;99.90
9849;DHT22;4963;51.444;6.528;2022-11-15T01:09:05;9.40;99.90
9849;DHT22;4963;51.444;6.528;2022-11-15T01:11:31;9.40;99.90
9849;DHT22;4963;51.444;6.528;2022-11-15T01:13:58;9.40;99.90
9849;DHT22;4963;51.444;6.528;2022-11-15T01:16:25;9.40;99.90
9849;DHT22;4963;51.444;6.528;2022-11-15T01:18:53;9.50;99.90
9849;DHT22;4963;51.444;6.528;2022-11-15T01:21:20;9.50;99.90
9849;DHT22;4963;51.444;6.528;2022-11-15T01:23:47;9.50;99.90
9849;DHT22;4963;51.444;6.528;2022-11-15T01:26:15;9.50;99.90
9849;DHT22;4963;51.444;6.528;2022-11-15T01:28:41;9.60;99.90
9849;DHT22;4963;51.444;6.528;2022-11-15T01:31:12;9.60;99.90
9849;DHT22;4963;51.444;6.528;2022-11-15T01:33:39;9.60;99.90
9849;DHT22;4963;51.444;6.528;2022-11-15T01:36:11;9.60;99.90
9849;DHT22;4963;51.444;6.528;2022-11-15T01:38:38;9.60;99.90
9849;DHT22;4963;51.444;6.528;2022-11-15T01:41:05;9.70;99.90
9849;DHT22;4963;51.444;6.528;2022-11-15T01:43:33;9.70;99.90
9849;DHT22;4963;51.444;6.528;2022-11-15T01:46:04;9.70;99.90
9849;DHT22;4963;51.444;6.528;2022-11-15T01:48:33;9.70;99.90
9849;DHT22;4963;51.444;6.528;2022-11-15T01:51:03;9.70;99.90
9849;DHT22;4963;51.444;6.528;2022-11-15T01:53:34;9.70;99.90
9849;DHT22;4963;51.444;6.528;2022-11-15T01:56:02;9.70;99.90
9849;DHT22;4963;51.444;6.528;2022-11-15T01:58:31;9.70;99.90
9849;DHT22;4963;51.444;6.528;2022-11-15T02:00:58;9.80;99.90
9849;DHT22;4963;51.444;6.528;2022-11-15T02:03:28;9.80;99.90
9849;DHT22;4963;51.444;6.528;2022-11-15T02:05:57;9.80;99.90
9849;DHT22;4963;51.444;6.528;2022-11-15T02:08:24;9.90;99.90
9849;DHT22;4963;51.444;6.528;2022-11-15T02:10:52;9.90;99.90
9849;DHT22;4963;51.444;6.528;2022-11-15T02:13:19;9.90;99.90
9849;DHT22;4963;51.444;6.528;2022-11-15T02:15:56;9.90;99.90
9849;DHT22;4963;51.444;6.528;2022-11-15T02:18:28;9.90;99.90
9849;DHT22;4963;51.444;6.528;2022-11-15T02:21:21;10.00;99.90
9849;DHT22;4963;51.444;6.528;2022-11-15T02:30:24;10.00;99.90
9849;DHT22;4963;51.444;6.528;2022-11-15T02:32:54;10.00;99.90
9849;DHT22;4963;51.444;6.528;2022-11-15T02:35:30;10.00;99.90
9849;DHT22;4963;51.444;6.528;2022-11-15T02:38:04;10.10;99.90
9849;DHT22;4963;51.444;6.528;2022-11-15T02:40:40;10.20;99.90
9849;DHT22;4963;51.444;6.528;2022-11-15T02:43:10;10.20;99.90
9849;DHT22;4963;51.444;6.528;2022-11-15T02:46:00;10.20;99.90
9849;DHT22;4963;51.444;6.528;2022-11-15T02:48:29;10.20;99.90
9849;DHT22;4963;51.444;6.528;2022-11-15T02:50:55;10.20;99.90
9849;DHT22;4963;51.444;6.528;2022-11-15T02:53:24;10.20;99.90
9849;DHT22;4963;51.444;6.528;2022-11-15T02:55:51;10.20;99.90
9849;DHT22;4963;51.444;6.528;2022-11-15T03:01:19;10.20;99.90
9849;DHT22;4963;51.444;6.528;2022-11-15T03:03:59;10.30;99.90
9849;DHT22;4963;51.444;6.528;2022-11-15T03:06:34;10.30;99.90
9849;DHT22;4963;51.444;6.528;2022-11-15T03:09:09;10.30;99.90
9849;DHT22;4963;51.444;6.528;2022-11-15T03:11:43;10.30;99.90
9849;DHT22;4963;51.444;6.528;2022-11-15T03:14:21;10.30;99.90
9849;DHT22;4963;51.444;6.528;2022-11-15T03:16:57;10.30;99.90
9849;DHT22;4963;51.444;6.528;2022-11-15T03:19:31;10.30;99.90
9849;DHT22;4963;51.444;6.528;2022-11-15T03:22:01;10.30;99.90
9849;DHT22;4963;51.444;6.528;2022-11-15T03:24:31;10.30;99.90
9849;DHT22;4963;51.444;6.528;2022-11-15T03:27:01;10.30;99.90
9849;DHT22;4963;51.444;6.528;2022-11-15T03:29:32;10.30;99.90
9849;DHT22;4963;51.444;6.528;2022-11-15T03:32:05;10.30;99.90
9849;DHT22;4963;51.444;6.528;2022-11-15T03:34:36;10.30;99.90
9849;DHT22;4963;51.444;6.528;2022-11-15T03:37:05;10.40;99.90
9849;DHT22;4963;51.444;6.528;2022-11-15T03:39:33;10.40;99.90
9849;DHT22;4963;51.444;6.528;2022-11-15T03:42:07;10.50;99.90
9849;DHT22;4963;51.444;6.528;2022-11-15T03:44:43;10.50;99.90
9849;DHT22;4963;51.444;6.528;2022-11-15T03:47:17;10.50;99.90
9849;DHT22;4963;51.444;6.528;2022-11-15T03:49:50;10.50;99.90
9849;DHT22;4963;51.444;6.528;2022-11-15T03:52:18;10.60;99.90
9849;DHT22;4963;51.444;6.528;2022-11-15T03:54:50;10.60;99.90
9849;DHT22;4963;51.444;6.528;2022-11-15T03:57:17;10.70;99.90
9849;DHT22;4963;51.444;6.528;2022-11-15T03:59:44;10.70;99.90
9849;DHT22;4963;51.444;6.528;2022-11-15T04:02:11;10.70;99.90
9849;DHT22;4963;51.444;6.528;2022-11-15T04:04:39;10.80;99.90
9849;DHT22;4963;51.444;6.528;2022-11-15T04:07:06;10.80;99.90
9849;DHT22;4963;51.444;6.528;2022-11-15T04:09:32;10.80;99.90
9849;DHT22;4963;51.444;6.528;2022-11-15T04:12:19;10.80;99.90
9849;DHT22;4963;51.444;6.528;2022-11-15T04:14:56;10.80;99.90
9849;DHT22;4963;51.444;6.528;2022-11-15T04:17:34;10.80;99.90
9849;DHT22;4963;51.444;6.528;2022-11-15T04:20:02;10.80;99.90
9849;DHT22;4963;51.444;6.528;2022-11-15T04:22:46;10.70;99.90
9849;DHT22;4963;51.444;6.528;2022-11-15T04:25:30;10.70;99.90
9849;DHT22;4963;51.444;6.528;2022-11-15T04:27:57;10.60;99.90
9849;DHT22;4963;51.444;6.528;2022-11-15T04:30:24;10.60;99.90
9849;DHT22;4963;51.444;6.528;2022-11-15T04:32:51;10.50;99.90
9849;DHT22;4963;51.444;6.528;2022-11-15T04:35:19;10.50;99.90
9849;DHT22;4963;51.444;6.528;2022-11-15T04:37:46;10.50;99.90
9849;DHT22;4963;51.444;6.528;2022-11-15T04:40:12;10.50;99.90
9849;DHT22;4963;51.444;6.528;2022-11-15T04:42:40;10.50;99.90
9849;DHT22;4963;51.444;6.528;2022-11-15T04:45:08;10.50;99.90
9849;DHT22;4963;51.444;6.528;2022-11-15T04:47:35;10.50;99.90
9849;DHT22;4963;51.444;6.528;2022-11-15T04:50:03;10.50;99.90
9849;DHT22;4963;51.444;6.528;2022-11-15T04:52:31;10.50;99.90
9849;DHT22;4963;51.444;6.528;2022-11-15T04:54:58;10.50;99.90
9849;DHT22;4963;51.444;6.528;2022-11-15T04:57:24;10.50;99.90
9849;DHT22;4963;51.444;6.528;2022-11-15T04:59:51;10.50;99.90
9849;DHT22;4963;51.444;6.528;2022-11-15T05:02:18;10.50;99.90
9849;DHT22;4963;51.444;6.528;2022-11-15T05:04:45;10.50;99.90
9849;DHT22;4963;51.444;6.528;2022-11-15T05:07:10;10.50;99.90
9849;DHT22;4963;51.444;6.528;2022-11-15T05:09:38;10.50;99.90
9849;DHT22;4963;51.444;6.528;2022-11-15T05:12:05;10.50;99.90
9849;DHT22;4963;51.444;6.528;2022-11-15T05:14:32;10.50;99.90
9849;DHT22;4963;51.444;6.528;2022-11-15T05:17:00;10.50;99.90
9849;DHT22;4963;51.444;6.528;2022-11-15T05:19:27;10.50;99.90
9849;DHT22;4963;51.444;6.528;2022-11-15T05:21:54;10.50;99.90
9849;DHT22;4963;51.444;6.528;2022-11-15T05:24:20;10.50;99.90
9849;DHT22;4963;51.444;6.528;2022-11-15T05:26:48;10.50;99.90
9849;DHT22;4963;51.444;6.528;2022-11-15T05:29:15;10.50;99.90
9849;DHT22;4963;51.444;6.528;2022-11-15T05:31:42;10.50;99.90
9849;DHT22;4963;51.444;6.528;2022-11-15T05:34:09;10.50;99.90
9849;DHT22;4963;51.444;6.528;2022-11-15T05:36:37;10.40;99.90
9849;DHT22;4963;51.444;6.528;2022-11-15T05:39:06;10.50;99.90
9849;DHT22;4963;51.444;6.528;2022-11-15T05:41:36;10.40;99.90
9849;DHT22;4963;51.444;6.528;2022-11-15T05:44:06;10.40;99.90
9849;DHT22;4963;51.444;6.528;2022-11-15T05:46:34;10.40;99.90
9849;DHT22;4963;51.444;6.528;2022-11-15T05:49:01;10.40;99.90
9849;DHT22;4963;51.444;6.528;2022-11-15T05:51:29;10.50;99.90
9849;DHT22;4963;51.444;6.528;2022-11-15T05:53:57;10.50;99.90
9849;DHT22;4963;51.444;6.528;2022-11-15T05:56:25;10.60;99.90
9849;DHT22;4963;51.444;6.528;2022-11-15T05:58:52;10.60;99.90
9849;DHT22;4963;51.444;6.528;2022-11-15T06:01:22;10.60;99.90
9849;DHT22;4963;51.444;6.528;2022-11-15T06:03:49;10.60;99.90
9849;DHT22;4963;51.444;6.528;2022-11-15T06:06:16;10.70;99.90
9849;DHT22;4963;51.444;6.528;2022-11-15T06:08:42;10.60;99.90
9849;DHT22;4963;51.444;6.528;2022-11-15T06:11:09;10.70;99.90
9849;DHT22;4963;51.444;6.528;2022-11-15T06:13:36;10.70;99.90
9849;DHT22;4963;51.444;6.528;2022-11-15T06:16:03;10.70;99.90
9849;DHT22;4963;51.444;6.528;2022-11-15T06:18:33;10.80;99.90
9849;DHT22;4963;51.444;6.528;2022-11-15T06:21:00;10.70;99.90
9849;DHT22;4963;51.444;6.528;2022-11-15T06:23:27;10.80;99.90
9849;DHT22;4963;51.444;6.528;2022-11-15T06:25:57;10.80;99.90
9849;DHT22;4963;51.444;6.528;2022-11-15T06:28:24;10.80;99.90
9849;DHT22;4963;51.444;6.528;2022-11-15T06:30:51;10.90;99.90
9849;DHT22;4963;51.444;6.528;2022-11-15T06:33:18;10.90;99.90
9849;DHT22;4963;51.444;6.528;2022-11-15T06:35:46;10.90;99.90
9849;DHT22;4963;51.444;6.528;2022-11-15T06:38:13;10.90;99.90
9849;DHT22;4963;51.444;6.528;2022-11-15T06:40:40;10.80;99.90
9849;DHT22;4963;51.444;6.528;2022-11-15T06:43:06;10.80;99.90
9849;DHT22;4963;51.444;6.528;2022-11-15T06:45:33;10.90;99.90
9849;DHT22;4963;51.444;6.528;2022-11-15T06:48:00;10.80;99.90
9849;DHT22;4963;51.444;6.528;2022-11-15T06:50:27;10.80;99.90
9849;DHT22;4963;51.444;6.528;2022-11-15T06:53:00;10.90;99.90
9849;DHT22;4963;51.444;6.528;2022-11-15T06:55:27;10.90;99.90
9849;DHT22;4963;51.444;6.528;2022-11-15T06:57:54;10.90;99.90
9849;DHT22;4963;51.444;6.528;2022-11-15T07:00:21;10.90;99.90
9849;DHT22;4963;51.444;6.528;2022-11-15T07:02:48;10.90;99.90
9849;DHT22;4963;51.444;6.528;2022-11-15T07:05:15;10.90;99.90
9849;DHT22;4963;51.444;6.528;2022-11-15T07:07:42;11.00;99.90
9849;DHT22;4963;51.444;6.528;2022-11-15T07:10:10;11.00;99.90
9849;DHT22;4963;51.444;6.528;2022-11-15T07:12:37;11.00;99.90
9849;DHT22;4963;51.444;6.528;2022-11-15T07:15:05;11.10;99.90
9849;DHT22;4963;51.444;6.528;2022-11-15T07:17:32;11.10;99.90
9849;DHT22;4963;51.444;6.528;2022-11-15T07:19:58;11.10;99.90
9849;DHT22;4963;51.444;6.528;2022-11-15T07:22:25;11.10;99.90
9849;DHT22;4963;51.444;6.528;2022-11-15T07:24:52;11.10;99.90
9849;DHT22;4963;51.444;6.528;2022-11-15T07:27:20;11.10;99.90
9849;DHT22;4963;51.444;6.528;2022-11-15T07:29:47;11.10;99.90
9849;DHT22;4963;51.444;6.528;2022-11-15T07:32:14;11.10;99.90
9849;DHT22;4963;51.444;6.528;2022-11-15T07:34:41;11.10;99.90
9849;DHT22;4963;51.444;6.528;2022-11-15T07:37:08;11.20;99.90
9849;DHT22;4963;51.444;6.528;2022-11-15T07:39:35;11.20;99.90
9849;DHT22;4963;51.444;6.528;2022-11-15T07:42:02;11.20;99.90
9849;DHT22;4963;51.444;6.528;2022-11-15T07:44:48;11.20;99.90
9849;DHT22;4963;51.444;6.528;2022-11-15T07:47:15;11.20;99.90
9849;DHT22;4963;51.444;6.528;2022-11-15T07:49:41;11.10;99.90
9849;DHT22;4963;51.444;6.528;2022-11-15T07:52:08;11.20;99.90
9849;DHT22;4963;51.444;6.528;2022-11-15T07:54:35;11.10;99.90
9849;DHT22;4963;51.444;6.528;2022-11-15T07:57:02;11.10;99.90
9849;DHT22;4963;51.444;6.528;2022-11-15T07:59:29;11.10;99.90
9849;DHT22;4963;51.444;6.528;2022-11-15T08:01:57;11.10;99.90
9849;DHT22;4963;51.444;6.528;2022-11-15T08:04:23;11.10;99.90
9849;DHT22;4963;51.444;6.528;2022-11-15T08:06:50;11.00;99.90
9849;DHT22;4963;51.444;6.528;2022-11-15T08:09:17;11.00;99.90
9849;DHT22;4963;51.444;6.528;2022-11-15T08:11:44;11.00;99.90
9849;DHT22;4963;51.444;6.528;2022-11-15T08:14:10;11.00;99.90
9849;DHT22;4963;51.444;6.528;2022-11-15T08:16:37;11.00;99.90
9849;DHT22;4963;51.444;6.528;2022-11-15T08:19:05;10.90;99.90
9849;DHT22;4963;51.444;6.528;2022-11-15T08:21:32;10.90;99.90
9849;DHT22;4963;51.444;6.528;2022-11-15T08:23:59;10.90;99.90
9849;DHT22;4963;51.444;6.528;2022-11-15T08:26:26;10.90;99.90
9849;DHT22;4963;51.444;6.528;2022-11-15T08:28:55;10.90;99.90
9849;DHT22;4963;51.444;6.528;2022-11-15T08:31:22;10.80;99.90
9849;DHT22;4963;51.444;6.528;2022-11-15T08:33:49;10.80;99.90
9849;DHT22;4963;51.444;6.528;2022-11-15T08:36:17;10.80;99.90
9849;DHT22;4963;51.444;6.528;2022-11-15T08:38:44;10.70;99.90
9849;DHT22;4963;51.444;6.528;2022-11-15T08:41:13;10.80;99.90
9849;DHT22;4963;51.444;6.528;2022-11-15T08:43:40;10.70;99.90
9849;DHT22;4963;51.444;6.528;2022-11-15T08:46:09;10.70;99.90
9849;DHT22;4963;51.444;6.528;2022-11-15T08:48:37;10.70;99.90
9849;DHT22;4963;51.444;6.528;2022-11-15T08:51:04;10.70;99.90
9849;DHT22;4963;51.444;6.528;2022-11-15T08:53:33;10.70;99.90
9849;DHT22;4963;51.444;6.528;2022-11-15T08:56:00;10.70;99.90
9849;DHT22;4963;51.444;6.528;2022-11-15T08:58:27;10.70;99.90
9849;DHT22;4963;51.444;6.528;2022-11-15T09:00:54;10.80;99.90
9849;DHT22;4963;51.444;6.528;2022-11-15T09:03:20;10.90;99.90
9849;DHT22;4963;51.444;6.528;2022-11-15T09:05:47;10.90;99.90
9849;DHT22;4963;51.444;6.528;2022-11-15T09:08:14;11.00;99.90
9849;DHT22;4963;51.444;6.528;2022-11-15T09:10:42;11.00;99.90
9849;DHT22;4963;51.444;6.528;2022-11-15T09:13:09;11.10;99.90
9849;DHT22;4963;51.444;6.528;2022-11-15T09:15:36;11.10;99.90
9849;DHT22;4963;51.444;6.528;2022-11-15T09:18:02;11.20;99.90
9849;DHT22;4963;51.444;6.528;2022-11-15T09:20:29;11.20;99.90
9849;DHT22;4963;51.444;6.528;2022-11-15T09:22:59;11.30;99.90
9849;DHT22;4963;51.444;6.528;2022-11-15T09:25:26;11.30;99.90
9849;DHT22;4963;51.444;6.528;2022-11-15T09:27:55;11.40;99.90
9849;DHT22;4963;51.444;6.528;2022-11-15T09:30:22;11.50;99.90
9849;DHT22;4963;51.444;6.528;2022-11-15T09:32:49;11.50;99.90
9849;DHT22;4963;51.444;6.528;2022-11-15T09:35:16;11.60;99.90
9849;DHT22;4963;51.444;6.528;2022-11-15T09:37:43;11.60;99.90
9849;DHT22;4963;51.444;6.528;2022-11-15T09:40:11;11.60;99.90
9849;DHT22;4963;51.444;6.528;2022-11-15T09:42:50;11.70;99.90
9849;DHT22;4963;51.444;6.528;2022-11-15T09:45:23;11.70;99.90
9849;DHT22;4963;51.444;6.528;2022-11-15T09:50:52;11.60;99.90
9849;DHT22;4963;51.444;6.528;2022-11-15T09:53:27;11.60;99.90
9849;DHT22;4963;51.444;6.528;2022-11-15T09:55:59;11.60;99.90
9849;DHT22;4963;51.444;6.528;2022-11-15T09:58:33;11.70;99.90
9849;DHT22;4963;51.444;6.528;2022-11-15T10:01:08;11.60;99.90
9849;DHT22;4963;51.444;6.528;2022-11-15T10:03:38;11.70;99.90
9849;DHT22;4963;51.444;6.528;2022-11-15T10:06:13;11.70;99.90
9849;DHT22;4963;51.444;6.528;2022-11-15T10:08:51;11.70;99.90
9849;DHT22;4963;51.444;6.528;2022-11-15T10:11:22;11.70;99.90
9849;DHT22;4963;51.444;6.528;2022-11-15T10:13:52;11.70;99.90
9849;DHT22;4963;51.444;6.528;2022-11-15T10:16:37;11.80;99.90
9849;DHT22;4963;51.444;6.528;2022-11-15T10:19:11;11.70;99.90
9849;DHT22;4963;51.444;6.528;2022-11-15T10:21:47;11.80;99.90
9849;DHT22;4963;51.444;6.528;2022-11-15T10:24:23;11.80;99.90
9849;DHT22;4963;51.444;6.528;2022-11-15T10:26:50;11.80;99.90
9849;DHT22;4963;51.444;6.528;2022-11-15T10:29:19;11.80;99.90
9849;DHT22;4963;51.444;6.528;2022-11-15T10:31:48;11.80;99.90
9849;DHT22;4963;51.444;6.528;2022-11-15T10:34:17;11.90;99.90
9849;DHT22;4963;51.444;6.528;2022-11-15T10:36:45;11.90;99.90
9849;DHT22;4963;51.444;6.528;2022-11-15T10:39:13;12.00;99.90
9849;DHT22;4963;51.444;6.528;2022-11-15T10:41:42;12.00;99.90
9849;DHT22;4963;51.444;6.528;2022-11-15T10:44:17;12.10;99.90
9849;DHT22;4963;51.444;6.528;2022-11-15T10:46:46;12.10;99.90
9849;DHT22;4963;51.444;6.528;2022-11-15T10:49:16;12.20;99.90
9849;DHT22;4963;51.444;6.528;2022-11-15T10:51:48;12.20;99.90
9849;DHT22;4963;51.444;6.528;2022-11-15T10:54:21;12.20;99.90
9849;DHT22;4963;51.444;6.528;2022-11-15T10:56:51;12.20;99.90
9849;DHT22;4963;51.444;6.528;2022-11-15T10:59:24;12.20;99.90
9849;DHT22;4963;51.444;6.528;2022-11-15T11:01:52;12.20;99.90
9849;DHT22;4963;51.444;6.528;2022-11-15T11:04:21;12.20;99.90
9849;DHT22;4963;51.444;6.528;2022-11-15T11:06:50;12.20;99.90
9849;DHT22;4963;51.444;6.528;2022-11-15T11:09:29;12.20;99.90
9849;DHT22;4963;51.444;6.528;2022-11-15T11:11:57;12.20;99.90
9849;DHT22;4963;51.444;6.528;2022-11-15T11:14:25;12.20;99.90
9849;DHT22;4963;51.444;6.528;2022-11-15T11:16:55;12.20;99.90
9849;DHT22;4963;51.444;6.528;2022-11-15T11:19:39;12.20;99.90
9849;DHT22;4963;51.444;6.528;2022-11-15T11:22:15;12.20;99.90
9849;DHT22;4963;51.444;6.528;2022-11-15T11:24:47;12.20;99.90
9849;DHT22;4963;51.444;6.528;2022-11-15T11:27:24;12.30;99.90
9849;DHT22;4963;51.444;6.528;2022-11-15T11:30:03;12.30;99.90
9849;DHT22;4963;51.444;6.528;2022-11-15T11:32:55;12.30;99.90
9849;DHT22;4963;51.444;6.528;2022-11-15T11:35:30;12.30;99.90
9849;DHT22;4963;51.444;6.528;2022-11-15T11:38:10;12.30;99.90
9849;DHT22;4963;51.444;6.528;2022-11-15T11:40:44;12.30;99.90
9849;DHT22;4963;51.444;6.528;2022-11-15T11:43:20;12.20;99.90
9849;DHT22;4963;51.444;6.528;2022-11-15T11:46:09;12.30;99.90
9849;DHT22;4963;51.444;6.528;2022-11-15T11:48:42;12.20;99.90
9849;DHT22;4963;51.444;6.528;2022-11-15T11:51:16;12.30;99.90
9849;DHT22;4963;51.444;6.528;2022-11-15T11:53:50;12.20;99.90
9849;DHT22;4963;51.444;6.528;2022-11-15T11:56:24;12.30;99.90
9849;DHT22;4963;51.444;6.528;2022-11-15T11:58:54;12.30;99.90
9849;DHT22;4963;51.444;6.528;2022-11-15T12:01:25;12.30;99.90
9849;DHT22;4963;51.444;6.528;2022-11-15T12:03:56;12.30;99.90
9849;DHT22;4963;51.444;6.528;2022-11-15T12:06:30;12.30;99.90
9849;DHT22;4963;51.444;6.528;2022-11-15T12:09:02;12.30;99.90
9849;DHT22;4963;51.444;6.528;2022-11-15T12:11:37;12.30;99.90
9849;DHT22;4963;51.444;6.528;2022-11-15T12:14:12;12.40;99.90
9849;DHT22;4963;51.444;6.528;2022-11-15T12:16:42;12.40;99.90
9849;DHT22;4963;51.444;6.528;2022-11-15T12:19:09;12.40;99.90
9849;DHT22;4963;51.444;6.528;2022-11-15T12:21:46;12.50;99.90
9849;DHT22;4963;51.444;6.528;2022-11-15T12:24:20;12.50;99.90
9849;DHT22;4963;51.444;6.528;2022-11-15T12:26:50;12.50;99.90
9849;DHT22;4963;51.444;6.528;2022-11-15T12:29:24;12.60;99.90
9849;DHT22;4963;51.444;6.528;2022-11-15T12:31:55;12.60;99.90
9849;DHT22;4963;51.444;6.528;2022-11-15T12:34:45;12.60;99.90
9849;DHT22;4963;51.444;6.528;2022-11-15T12:37:34;12.60;99.90
9849;DHT22;4963;51.444;6.528;2022-11-15T12:46:13;12.60;99.90
9849;DHT22;4963;51.444;6.528;2022-11-15T12:48:51;12.70;99.90
9849;DHT22;4963;51.444;6.528;2022-11-15T12:51:21;12.80;99.90
9849;DHT22;4963;51.444;6.528;2022-11-15T12:53:49;12.80;99.90
9849;DHT22;4963;51.444;6.528;2022-11-15T12:56:23;12.80;99.90
9849;DHT22;4963;51.444;6.528;2022-11-15T12:58:56;12.80;99.90
9849;DHT22;4963;51.444;6.528;2022-11-15T13:04:33;12.80;99.90
9849;DHT22;4963;51.444;6.528;2022-11-15T13:07:01;12.90;99.90
9849;DHT22;4963;51.444;6.528;2022-11-15T13:09:52;12.90;99.90
9849;DHT22;4963;51.444;6.528;2022-11-15T13:12:56;12.90;99.90
9849;DHT22;4963;51.444;6.528;2022-11-15T13:15:51;12.80;99.90
9849;DHT22;4963;51.444;6.528;2022-11-15T13:18:28;12.90;99.90
9849;DHT22;4963;51.444;6.528;2022-11-15T13:20:55;12.80;99.90
9849;DHT22;4963;51.444;6.528;2022-11-15T13:23:22;12.80;99.90
9849;DHT22;4963;51.444;6.528;2022-11-15T13:28:47;12.80;99.90
9849;DHT22;4963;51.444;6.528;2022-11-15T13:31:25;12.80;99.90
9849;DHT22;4963;51.444;6.528;2022-11-15T13:33:54;12.80;99.90
9849;DHT22;4963;51.444;6.528;2022-11-15T13:36:22;12.80;99.90
9849;DHT22;4963;51.444;6.528;2022-11-15T13:38:59;12.90;99.90
9849;DHT22;4963;51.444;6.528;2022-11-15T13:43:59;12.90;99.90
9849;DHT22;4963;51.444;6.528;2022-11-15T13:46:27;13.00;99.90
9849;DHT22;4963;51.444;6.528;2022-11-15T13:48:56;13.00;99.90
9849;DHT22;4963;51.444;6.528;2022-11-15T13:51:29;12.90;99.90
9849;DHT22;4963;51.444;6.528;2022-11-15T13:54:00;12.90;99.90
9849;DHT22;4963;51.444;6.528;2022-11-15T13:56:28;12.80;99.90
9849;DHT22;4963;51.444;6.528;2022-11-15T13:58:57;12.90;99.90
9849;DHT22;4963;51.444;6.528;2022-11-15T14:01:25;12.90;99.90
9849;DHT22;4963;51.444;6.528;2022-11-15T14:03:56;12.90;99.90
9849;DHT22;4963;51.444;6.528;2022-11-15T14:06:25;12.90;99.90
9849;DHT22;4963;51.444;6.528;2022-11-15T14:09:14;13.00;99.90
9849;DHT22;4963;51.444;6.528;2022-11-15T14:11:50;13.00;99.90
9849;DHT22;4963;51.444;6.528;2022-11-15T14:14:21;13.00;99.90
9849;DHT22;4963;51.444;6.528;2022-11-15T14:16:50;13.00;99.90
9849;DHT22;4963;51.444;6.528;2022-11-15T14:19:35;13.00;99.90
9849;DHT22;4963;51.444;6.528;2022-11-15T14:22:11;13.00;99.90
9849;DHT22;4963;51.444;6.528;2022-11-15T14:24:39;13.00;99.90
9849;DHT22;4963;51.444;6.528;2022-11-15T14:27:26;13.10;99.90
9849;DHT22;4963;51.444;6.528;2022-11-15T14:29:55;13.10;99.90
9849;DHT22;4963;51.444;6.528;2022-11-15T14:32:23;13.10;99.90
9849;DHT22;4963;51.444;6.528;2022-11-15T14:34:55;13.10;99.90
9849;DHT22;4963;51.444;6.528;2022-11-15T14:37:23;13.10;99.90
9849;DHT22;4963;51.444;6.528;2022-11-15T14:39:50;13.10;99.90
9849;DHT22;4963;51.444;6.528;2022-11-15T14:42:18;13.10;99.90
9849;DHT22;4963;51.444;6.528;2022-11-15T14:44:45;13.10;99.90
9849;DHT22;4963;51.444;6.528;2022-11-15T14:47:13;13.10;99.90
9849;DHT22;4963;51.444;6.528;2022-11-15T14:49:40;13.00;99.90
9849;DHT22;4963;51.444;6.528;2022-11-15T14:52:24;13.00;99.90
9849;DHT22;4963;51.444;6.528;2022-11-15T14:54:51;13.00;99.90
9849;DHT22;4963;51.444;6.528;2022-11-15T14:57:18;13.10;99.90
9849;DHT22;4963;51.444;6.528;2022-11-15T14:59:45;13.10;99.90
9849;DHT22;4963;51.444;6.528;2022-11-15T15:02:17;13.10;99.90
9849;DHT22;4963;51.444;6.528;2022-11-15T15:04:44;13.10;99.90
9849;DHT22;4963;51.444;6.528;2022-11-15T15:07:11;13.10;99.90
9849;DHT22;4963;51.444;6.528;2022-11-15T15:09:38;13.00;99.90
9849;DHT22;4963;51.444;6.528;2022-11-15T15:12:08;13.00;99.90
9849;DHT22;4963;51.444;6.528;2022-11-15T15:14:37;13.10;99.90
9849;DHT22;4963;51.444;6.528;2022-11-15T15:17:04;13.10;99.90
9849;DHT22;4963;51.444;6.528;2022-11-15T15:19:32;13.10;99.90
9849;DHT22;4963;51.444;6.528;2022-11-15T15:21:59;13.10;99.90
9849;DHT22;4963;51.444;6.528;2022-11-15T15:24:26;13.00;99.90
9849;DHT22;4963;51.444;6.528;2022-11-15T15:26:52;13.00;99.90
9849;DHT22;4963;51.444;6.528;2022-11-15T15:29:19;13.00;99.90
9849;DHT22;4963;51.444;6.528;2022-11-15T15:31:46;13.00;99.90
9849;DHT22;4963;51.444;6.528;2022-11-15T15:34:13;13.00;99.90
9849;DHT22;4963;51.444;6.528;2022-11-15T15:36:41;13.00;99.90
9849;DHT22;4963;51.444;6.528;2022-11-15T15:39:09;12.90;99.90
9849;DHT22;4963;51.444;6.528;2022-11-15T15:41:36;12.90;99.90
9849;DHT22;4963;51.444;6.528;2022-11-15T15:44:03;12.90;99.90
9849;DHT22;4963;51.444;6.528;2022-11-15T15:46:30;12.90;99.90
9849;DHT22;4963;51.444;6.528;2022-11-15T15:48:56;12.90;99.90
9849;DHT22;4963;51.444;6.528;2022-11-15T15:51:23;12.80;99.90
9849;DHT22;4963;51.444;6.528;2022-11-15T15:53:51;12.90;99.90
9849;DHT22;4963;51.444;6.528;2022-11-15T15:56:22;12.90;99.90
9849;DHT22;4963;51.444;6.528;2022-11-15T15:58:49;12.90;99.90
9849;DHT22;4963;51.444;6.528;2022-11-15T16:01:18;12.90;99.90
9849;DHT22;4963;51.444;6.528;2022-11-15T16:03:45;12.90;99.90
9849;DHT22;4963;51.444;6.528;2022-11-15T16:06:34;12.90;99.90
9849;DHT22;4963;51.444;6.528;2022-11-15T16:09:03;12.90;99.90
9849;DHT22;4963;51.444;6.528;2022-11-15T16:11:30;12.90;99.90
9849;DHT22;4963;51.444;6.528;2022-11-15T16:13:57;12.90;99.90
9849;DHT22;4963;51.444;6.528;2022-11-15T16:16:23;12.90;99.90
9849;DHT22;4963;51.444;6.528;2022-11-15T16:18:50;12.80;99.90
9849;DHT22;4963;51.444;6.528;2022-11-15T16:21:19;12.80;99.90
9849;DHT22;4963;51.444;6.528;2022-11-15T16:23:45;12.80;99.90
9849;DHT22;4963;51.444;6.528;2022-11-15T16:26:20;12.80;99.90
9849;DHT22;4963;51.444;6.528;2022-11-15T16:28:47;12.80;99.90
9849;DHT22;4963;51.444;6.528;2022-11-15T16:31:14;12.80;99.90
9849;DHT22;4963;51.444;6.528;2022-11-15T16:33:44;12.80;99.90
9849;DHT22;4963;51.444;6.528;2022-11-15T16:36:19;12.80;99.90
9849;DHT22;4963;51.444;6.528;2022-11-15T16:38:47;12.80;99.90
9849;DHT22;4963;51.444;6.528;2022-11-15T16:41:15;12.80;99.90
9849;DHT22;4963;51.444;6.528;2022-11-15T16:43:44;12.80;99.90
9849;DHT22;4963;51.444;6.528;2022-11-15T16:46:14;12.90;99.90
9849;DHT22;4963;51.444;6.528;2022-11-15T16:48:42;12.90;99.90